Hovedside
METAR-TAF:

METAR-TAF

Lufthavner :

Björneborg lufthavn

Björneborg, Finland

breddegrad: 61-28N, lengdegrad: 021-48E, høyde over havet: 13 m

Gjeldene værobservasjon

Denne rapporten ble laget for 38 minutter siden, klokken 09:20 UTC
Vind 8 kt fra Øst-nordøst, skiftende mellom Nordøst og Øst
Temperatur 3°C
Luftfuktighet 93%
Trykk 1015 hPa
Sikt 10 km eller mer

METAR: EFPO 200920Z AUTO 07008KT 040V100 9999 OVC006/// 03/02 Q1015

Tid: 12:58 (09:58 UTC)

Varsel

Denne rapporten ble laget for 1 time og 21 minutter siden, klokken 08:37 UTC
Varsel gyldig fra 20. klokken 09 UTC til 20. klokken 18 UTC
Vind 8 kt fra Øst
Sikt 10 km eller mer
Brutte skyer i en høyde av 900 ft
Blir
fra 20. klokken 09 UTC til 20. klokken 11 UTC
Brutte skyer i en høyde av 1500 ft
lett regn
Midlertidig
fra 20. klokken 11 UTC til 20. klokken 18 UTC
Sikt: 4000 m
Brutte skyer i en høyde av 900 ft
regn

TAF: EFPO 200837Z 2009/2018 08008KT 9999 BKN009 BECMG 2009/2011 -RA BKN015 TEMPO 2011/2018 4000 RA BKN009

Værobservasjoner og værvarsel for over 4000 flyplasser (METAR- og TAF-rapporter).

Tilgjengelige stasjoner er representert av de røde og gule prikkene på kartet.

Hold musepekeren over prikken for å se navnet på stasjonen.

Klikk så for å se værobservasjoner og -varsler.

For å forandre kartet kan du klikke på den grønne knappen med svart kryss for å zoome inn, på den grønne knappen med strek for å zoome ut, eller på de grønne pilene for å se tilstøtende kart.


METAR-TAF: